Norwegian Epic — C6XP7 — position and weather

sailwx.info

Track history (hours):
 
Tides and Currents Weather Stations Pressure Air Temp Water Temp Dewpoint Dewpoint Depression Visibility Wind Speed Wind Dir Waves Ship Positions

Norwegian Epic

Last reported at 2020-Sep-18 07:29 UTC. Time now 2020-Sep-18 07:57 UTC.
Position N 43°06' E 005°54'.

Length 329 m; draft 9 m.

Type: Passenger vessel. MMSI: 311018500.

Date/timePositionNaut miles runAvg speedWind from/ knotsBaromVisibWave heightAir tempDewpointWater temp
2020-Sep-18 07:29N 43°06' E 005°54'0 0.0
2020-Sep-18 06:59N 43°06' E 005°54'5 2.5
2020-Sep-18 05:00N 43°04' E 005°60'13 6.7
2020-Sep-18 03:00N 42°50' E 006°03'12 8.1
2020-Sep-18 01:30N 42°40' E 006°11'5 9.9
2020-Sep-18 01:00N 42°35' E 006°15'14 2.5
2020-Sep-17 19:19N 42°38' E 005°56'21 9.0
2020-Sep-17 17:00N 42°21' E 006°14'15 9.5
2020-Sep-17 15:25N 42°09' E 006°25'7 7.8
2020-Sep-17 14:30N 42°02' E 006°26'2610.4
2020-Sep-17 11:59N 41°38' E 006°38'5111.6
2020-Sep-17 07:34N 40°49' E 007°01'113.3
2020-Sep-17 07:31N 40°49' E 007°01'1511.2
2020-Sep-17 06:08N 40°34' E 007°08'21 7.2
2020-Sep-17 03:11N 40°14' E 007°18'1 7.2
2020-Sep-17 03:01N 40°13' E 007°18'11 7.3
2020-Sep-17 01:27N 40°02' E 007°23'4 7.2
2020-Sep-17 00:56N 39°59' E 007°24'3 7.0
2020-Sep-17 00:31N 39°56' E 007°26'4 7.1
2020-Sep-16 23:54N 39°52' E 007°28'26 7.6
2020-Sep-16 20:31N 39°28' E 007°39'30 8.5
2020-Sep-16 17:00N 38°60' E 007°52'138 7.5
2020-Sep-15 22:30N 39°57' E 010°34'9410.5
2020-Sep-15 13:31N 41°24' E 011°23'53 3.0
2020-Sep-14 20:00N 40°32' E 011°38'10 1.8
2020-Sep-14 14:30N 40°22' E 011°39'15 7.7
2020-Sep-14 12:30N 40°19' E 011°19'18 7.3
2020-Sep-14 09:59N 40°19' E 010°55'31 6.8
2020-Sep-14 05:28N 39°49' E 010°53'3 6.5
2020-Sep-14 04:59N 39°45' E 010°53'49 3.7
2020-Sep-13 15:53N 40°33' E 010°41'513.6
2020-Sep-13 15:30N 40°28' E 010°41'1912.8
2020-Sep-13 14:03N 40°10' E 010°42'33 2.7
2020-Sep-13 01:49N 40°42' E 010°36'55 8.7
2020-Sep-12 19:27N 41°35' E 010°59'80 1.7
2020-Sep-10 19:26N 40°17' E 010°35'39 4.5
2020-Sep-10 10:51N 40°56' E 010°32'131 6.0
2020-Sep-09 13:00N 39°06' E 012°05'135 6.6
2020-Sep-08 16:29N 39°27' E 014°58'8 8.0
2020-Sep-08 15:29N 39°32' E 014°49'  
Track history (hours):
 
Tides and Currents Weather Stations Pressure Air Temp Water Temp Dewpoint Dewpoint Depression Visibility Wind Speed Wind Dir Waves Ship Positions

Norwegian Epic

Last reported at 2020-Sep-18 07:29 UTC. Time now 2020-Sep-18 07:57 UTC.
Position N 43°06' E 005°54'.

Length 329 m; draft 9 m.

Type: Passenger vessel. MMSI: 311018500.

Date/timePositionNaut miles runAvg speedWind from/ knotsBaromVisibWave heightAir tempDewpointWater temp
2020-Sep-18 07:29N 43°06' E 005°54'0 0.0
2020-Sep-18 06:59N 43°06' E 005°54'5 2.5
2020-Sep-18 05:00N 43°04' E 005°60'13 6.7
2020-Sep-18 03:00N 42°50' E 006°03'12 8.1
2020-Sep-18 01:30N 42°40' E 006°11'5 9.9
2020-Sep-18 01:00N 42°35' E 006°15'14 2.5
2020-Sep-17 19:19N 42°38' E 005°56'21 9.0
2020-Sep-17 17:00N 42°21' E 006°14'15 9.5
2020-Sep-17 15:25N 42°09' E 006°25'7 7.8
2020-Sep-17 14:30N 42°02' E 006°26'2610.4
2020-Sep-17 11:59N 41°38' E 006°38'5111.6
2020-Sep-17 07:34N 40°49' E 007°01'113.3
2020-Sep-17 07:31N 40°49' E 007°01'1511.2
2020-Sep-17 06:08N 40°34' E 007°08'21 7.2
2020-Sep-17 03:11N 40°14' E 007°18'1 7.2
2020-Sep-17 03:01N 40°13' E 007°18'11 7.3
2020-Sep-17 01:27N 40°02' E 007°23'4 7.2
2020-Sep-17 00:56N 39°59' E 007°24'3 7.0
2020-Sep-17 00:31N 39°56' E 007°26'4 7.1
2020-Sep-16 23:54N 39°52' E 007°28'26 7.6
2020-Sep-16 20:31N 39°28' E 007°39'30 8.5
2020-Sep-16 17:00N 38°60' E 007°52'138 7.5
2020-Sep-15 22:30N 39°57' E 010°34'9410.5
2020-Sep-15 13:31N 41°24' E 011°23'53 3.0
2020-Sep-14 20:00N 40°32' E 011°38'10 1.8
2020-Sep-14 14:30N 40°22' E 011°39'15 7.7
2020-Sep-14 12:30N 40°19' E 011°19'18 7.3
2020-Sep-14 09:59N 40°19' E 010°55'31 6.8
2020-Sep-14 05:28N 39°49' E 010°53'3 6.5
2020-Sep-14 04:59N 39°45' E 010°53'49 3.7
2020-Sep-13 15:53N 40°33' E 010°41'513.6
2020-Sep-13 15:30N 40°28' E 010°41'1912.8
2020-Sep-13 14:03N 40°10' E 010°42'33 2.7
2020-Sep-13 01:49N 40°42' E 010°36'55 8.7
2020-Sep-12 19:27N 41°35' E 010°59'80 1.7
2020-Sep-10 19:26N 40°17' E 010°35'39 4.5
2020-Sep-10 10:51N 40°56' E 010°32'131 6.0
2020-Sep-09 13:00N 39°06' E 012°05'135 6.6
2020-Sep-08 16:29N 39°27' E 014°58'8 8.0
2020-Sep-08 15:29N 39°32' E 014°49'  

Dump ship's entire track history